Laurel Hill, North Carolina
Current Conditions -  °F | °C
As of 9:52 PM on Friday 21 Nov 2014 (Local Time) from KMEB Reporting Station
Clear Clear  
Wind Chill: 30°   Ceiling: Unl
Heat Index: 34°   Visibility: 10mi
Dew Point: 13°   Wind: 5mph
Humidity: 42%   Direction: 90°E
Pressure: 30.54"   Gusts: NA
Location:  34.81°N, 79.55°W
Report Text: KMEB 220252Z AUTO 09004KT 10SM CLR 01/M11 A3054 RMK AO2 SLP341 T00111106 51015
Loading
Personal Weather Stations






























Interactive Weather Map New forecast layout! Learn more

10-Day Weather Forecast

Advertisements
Track Severe Weather on mobile